createdAt,value
2023-01-23T00:00:09.528Z,1.80
2023-01-23T00:06:55.127Z,1.70
2023-01-23T00:13:37.696Z,1.70
2023-01-23T00:20:20.433Z,1.70
2023-01-23T00:27:03.057Z,1.70
2023-01-23T00:33:46.178Z,1.80
2023-01-23T00:40:28.565Z,2.20
2023-01-23T00:47:10.908Z,2.10
2023-01-23T00:53:53.304Z,2.10
2023-01-23T01:00:39.146Z,2.10
2023-01-23T01:07:21.491Z,2.00
2023-01-23T01:14:04.602Z,2.00
2023-01-23T01:20:47.119Z,1.80
2023-01-23T01:27:29.411Z,1.80
2023-01-23T01:34:13.944Z,1.80
2023-01-23T01:40:57.201Z,1.80
2023-01-23T01:47:39.483Z,2.20
2023-01-23T01:54:43.542Z,2.30
2023-01-23T02:01:26.630Z,2.20
2023-01-23T02:08:32.539Z,2.40
2023-01-23T02:15:16.098Z,2.20
2023-01-23T02:22:14.484Z,2.40
2023-01-23T02:28:57.339Z,2.30
2023-01-23T02:35:43.224Z,2.40
2023-01-23T02:42:27.249Z,2.00
2023-01-23T02:49:10.634Z,2.20
2023-01-23T02:55:53.933Z,2.00
2023-01-23T03:02:39.249Z,1.90
2023-01-23T03:09:25.253Z,2.10
2023-01-23T03:16:08.437Z,2.20
2023-01-23T03:22:50.828Z,2.20
2023-01-23T03:29:51.796Z,2.20
2023-01-23T03:36:37.258Z,2.10
2023-01-23T03:43:19.647Z,2.10
2023-01-23T03:50:06.032Z,2.30
2023-01-23T03:56:52.189Z,2.20
2023-01-23T04:04:00.696Z,2.00
2023-01-23T04:10:43.504Z,2.20
2023-01-23T04:17:31.023Z,2.30
2023-01-23T04:24:13.414Z,2.30
2023-01-23T04:30:55.944Z,2.30
2023-01-23T04:37:44.729Z,2.20
2023-01-23T04:44:27.521Z,2.20
2023-01-23T04:51:28.420Z,2.50
2023-01-23T04:58:11.549Z,2.20
2023-01-23T05:04:54.201Z,2.30
2023-01-23T05:11:37.162Z,2.20
2023-01-23T05:18:20.121Z,2.50
2023-01-23T05:25:03.959Z,2.40
2023-01-23T05:31:47.000Z,2.40
2023-01-23T05:39:01.260Z,2.30
2023-01-23T05:45:45.622Z,2.40
2023-01-23T05:52:38.679Z,2.50
2023-01-23T05:59:21.611Z,2.40
2023-01-23T06:06:16.989Z,2.20
2023-01-23T06:12:59.399Z,2.50
2023-01-23T06:19:42.368Z,2.50
2023-01-23T06:26:25.708Z,2.60
2023-01-23T06:33:09.022Z,2.60
2023-01-23T06:39:56.432Z,2.50
2023-01-23T06:46:38.989Z,2.20
2023-01-23T06:53:22.407Z,2.20
2023-01-23T07:00:08.317Z,2.10
2023-01-23T07:06:50.963Z,2.30
2023-01-23T07:13:35.478Z,2.40
2023-01-23T07:20:19.713Z,2.40
2023-01-23T07:27:08.877Z,2.80
2023-01-23T07:33:51.651Z,2.60
2023-01-23T07:40:33.952Z,2.60
2023-01-23T07:47:16.414Z,2.70
2023-01-23T07:53:59.060Z,2.70
2023-01-23T08:00:42.202Z,2.90
2023-01-23T08:07:24.639Z,3.10
2023-01-23T08:14:07.100Z,3.20
2023-01-23T08:20:57.102Z,3.40
2023-01-23T08:27:39.700Z,3.60
2023-01-23T08:34:23.951Z,3.20
2023-01-23T08:41:06.813Z,2.90
2023-01-23T08:47:49.231Z,2.90
2023-01-23T08:54:32.091Z,2.90
2023-01-23T09:01:17.196Z,2.80
2023-01-23T09:08:02.715Z,3.20
2023-01-23T09:14:45.024Z,3.20
2023-01-23T09:21:27.303Z,3.60
2023-01-23T09:28:09.924Z,3.60
2023-01-23T09:34:52.289Z,3.20
2023-01-23T09:41:34.784Z,2.90
2023-01-23T09:48:30.846Z,3.00
2023-01-23T09:55:31.588Z,3.00
2023-01-23T10:02:20.143Z,3.00
2023-01-23T10:09:21.289Z,3.30
2023-01-23T10:16:25.545Z,3.80
2023-01-23T10:23:46.472Z,3.80
2023-01-23T10:30:35.106Z,3.90
2023-01-23T10:37:32.289Z,3.90
2023-01-23T10:44:20.162Z,4.10
2023-01-23T10:51:04.216Z,3.70
2023-01-23T10:57:49.125Z,3.90
2023-01-23T11:04:36.487Z,3.50
2023-01-23T11:11:25.254Z,3.40
2023-01-23T11:18:31.617Z,3.40
2023-01-23T11:25:34.154Z,3.80
2023-01-23T11:32:17.326Z,3.80
2023-01-23T11:39:36.246Z,3.80
2023-01-23T11:46:38.387Z,3.70
2023-01-23T11:53:45.463Z,3.40
2023-01-23T12:00:43.883Z,3.60
2023-01-23T12:07:26.800Z,3.60
2023-01-23T12:14:28.059Z,3.50
2023-01-23T12:21:25.095Z,3.60
2023-01-23T12:28:31.043Z,3.60
2023-01-23T12:35:35.174Z,4.10
2023-01-23T12:42:53.030Z,4.00
2023-01-23T12:49:58.618Z,4.30
2023-01-23T12:56:41.875Z,4.50
2023-01-23T13:03:56.374Z,4.50
2023-01-23T13:11:23.281Z,4.50
2023-01-23T13:18:06.261Z,4.60
2023-01-23T13:25:12.943Z,4.60
2023-01-23T13:32:25.381Z,4.60
2023-01-23T13:39:16.333Z,4.40
2023-01-23T13:45:59.181Z,4.20
2023-01-23T14:22:06.350Z,4.50
2023-01-23T14:29:19.857Z,4.60
2023-01-23T14:36:02.241Z,4.60
2023-01-23T14:42:45.393Z,4.40
2023-01-23T14:49:33.581Z,4.40
2023-01-23T14:56:16.140Z,4.30
2023-01-23T15:02:58.558Z,4.20
2023-01-23T15:09:45.802Z,4.20
2023-01-23T15:16:33.909Z,4.10
2023-01-23T15:23:19.282Z,3.90
2023-01-23T15:30:35.566Z,3.90
2023-01-23T15:37:26.637Z,3.90
2023-01-23T15:44:17.718Z,3.80
2023-01-23T15:51:00.117Z,4.00
2023-01-23T15:57:43.330Z,3.90
2023-01-23T16:04:25.627Z,3.80
2023-01-23T16:11:07.906Z,3.80
2023-01-23T16:17:50.646Z,3.80
2023-01-23T16:24:39.271Z,3.90
2023-01-23T16:31:22.467Z,3.90
2023-01-23T16:38:06.109Z,3.90
2023-01-23T16:44:49.189Z,3.80
2023-01-23T16:51:34.982Z,3.80
2023-01-23T16:58:24.295Z,3.60
2023-01-23T17:05:07.208Z,3.60
2023-01-23T17:11:55.800Z,3.50
2023-01-23T17:18:38.212Z,3.60
2023-01-23T17:25:26.714Z,3.60
2023-01-23T17:32:36.542Z,3.60
2023-01-23T17:39:20.525Z,4.00
2023-01-23T17:46:05.119Z,3.50
2023-01-23T17:52:48.668Z,3.50
2023-01-23T17:59:31.859Z,3.60
2023-01-23T18:06:14.283Z,3.60
2023-01-23T18:13:08.483Z,3.60
2023-01-23T18:19:53.777Z,3.60
2023-01-23T18:26:56.323Z,4.30
2023-01-23T18:33:49.631Z,3.60
2023-01-23T18:40:59.147Z,3.60
2023-01-23T18:47:41.665Z,3.50
2023-01-23T18:54:54.301Z,3.40
2023-01-23T19:01:53.569Z,3.40
2023-01-23T19:08:36.232Z,3.80
2023-01-23T19:15:40.371Z,3.50
2023-01-23T19:22:24.149Z,3.70
2023-01-23T19:29:20.989Z,4.10
2023-01-23T19:36:08.934Z,3.90
2023-01-23T19:43:08.842Z,3.70
2023-01-23T19:49:55.719Z,3.90
2023-01-23T19:56:39.082Z,4.00
2023-01-23T20:03:21.435Z,4.10
2023-01-23T20:10:05.062Z,4.30
2023-01-23T20:16:47.547Z,4.20
2023-01-23T20:23:30.602Z,4.30
2023-01-23T20:30:18.673Z,4.30
2023-01-23T20:37:01.075Z,6.00
2023-01-23T20:43:44.392Z,4.40
2023-01-23T20:50:26.823Z,4.30
2023-01-23T20:57:09.276Z,4.60
2023-01-23T21:03:51.686Z,4.40
2023-01-23T21:10:34.010Z,4.40
2023-01-23T21:17:16.376Z,4.40
2023-01-23T21:23:58.895Z,4.60
2023-01-23T21:30:41.385Z,4.60
2023-01-23T21:37:24.402Z,4.60
2023-01-23T21:44:07.179Z,4.60
2023-01-23T21:50:49.678Z,4.50
2023-01-23T21:57:32.060Z,4.30
2023-01-23T22:04:18.495Z,4.60
2023-01-23T22:11:00.848Z,4.90
2023-01-23T22:17:43.163Z,4.90
2023-01-23T22:24:25.909Z,4.90
2023-01-23T22:31:14.527Z,4.90
2023-01-23T22:37:56.938Z,4.60
2023-01-23T22:44:40.040Z,4.50
2023-01-23T22:51:25.132Z,4.60
2023-01-23T22:58:07.427Z,4.20
2023-01-23T23:04:49.985Z,4.40
2023-01-23T23:11:32.601Z,4.60
2023-01-23T23:18:15.094Z,4.60
2023-01-23T23:24:57.369Z,4.40
2023-01-23T23:31:40.113Z,4.40
2023-01-23T23:38:23.425Z,4.40
2023-01-23T23:45:08.494Z,4.50
2023-01-23T23:51:51.133Z,4.50
2023-01-23T23:58:37.614Z,4.50
